sensor_id;sensor_type;location;lat;lon;timestamp;pressure;altitude;pressure_sealevel;temperature;humidity
63808;BME280;49961;43.970;22.868;2023-02-23T00:00:18;101352.97;;;9.49;100.00
63808;BME280;49961;43.970;22.868;2023-02-23T00:01:28;101343.91;;;9.49;100.00
63808;BME280;49961;43.970;22.868;2023-02-23T00:02:29;101344.66;;;9.49;100.00
63808;BME280;49961;43.970;22.868;2023-02-23T00:03:29;101344.38;;;9.40;100.00
63808;BME280;49961;43.970;22.868;2023-02-23T00:04:30;101340.81;;;9.40;100.00
63808;BME280;49961;43.970;22.868;2023-02-23T00:05:35;101345.97;;;9.38;100.00
63808;BME280;49961;43.970;22.868;2023-02-23T00:06:36;101329.47;;;9.24;100.00
63808;BME280;49961;43.970;22.868;2023-02-23T00:07:37;101349.13;;;9.36;100.00
63808;BME280;49961;43.970;22.868;2023-02-23T00:08:38;101238.66;;;8.64;100.00
63808;BME280;49961;43.970;22.868;2023-02-23T00:09:39;101353.47;;;9.37;100.00
63808;BME280;49961;43.970;22.868;2023-02-23T00:10:39;101351.09;;;9.36;100.00
63808;BME280;49961;43.970;22.868;2023-02-23T00:11:40;101359.06;;;9.30;100.00
63808;BME280;49961;43.970;22.868;2023-02-23T00:12:41;101343.72;;;9.19;100.00
63808;BME280;49961;43.970;22.868;2023-02-23T00:13:43;101359.13;;;9.20;100.00
63808;BME280;49961;43.970;22.868;2023-02-23T00:14:45;101361.13;;;9.19;100.00
63808;BME280;49961;43.970;22.868;2023-02-23T00:15:45;101367.06;;;9.14;100.00
63808;BME280;49961;43.970;22.868;2023-02-23T00:16:46;101357.63;;;9.12;100.00
63808;BME280;49961;43.970;22.868;2023-02-23T00:17:46;101356.88;;;9.04;100.00
63808;BME280;49961;43.970;22.868;2023-02-23T00:18:55;101359.59;;;9.08;100.00
63808;BME280;49961;43.970;22.868;2023-02-23T00:19:59;101355.66;;;9.09;100.00
63808;BME280;49961;43.970;22.868;2023-02-23T00:21:00;101353.25;;;9.11;100.00
63808;BME280;49961;43.970;22.868;2023-02-23T00:22:01;101364.75;;;9.06;100.00
63808;BME280;49961;43.970;22.868;2023-02-23T00:23:01;101360.81;;;9.07;100.00
63808;BME280;49961;43.970;22.868;2023-02-23T00:24:05;101354.56;;;8.96;100.00
63808;BME280;49961;43.970;22.868;2023-02-23T00:25:09;101339.69;;;8.65;100.00
63808;BME280;49961;43.970;22.868;2023-02-23T00:26:09;101365.69;;;8.75;100.00
63808;BME280;49961;43.970;22.868;2023-02-23T00:27:10;101370.81;;;8.76;100.00
63808;BME280;49961;43.970;22.868;2023-02-23T00:28:16;101367.28;;;8.72;100.00
63808;BME280;49961;43.970;22.868;2023-02-23T00:29:20;101372.06;;;8.65;100.00
63808;BME280;49961;43.970;22.868;2023-02-23T00:30:21;101373.25;;;8.64;100.00
63808;BME280;49961;43.970;22.868;2023-02-23T00:31:22;101372.06;;;8.68;100.00
63808;BME280;49961;43.970;22.868;2023-02-23T00:32:25;101373.63;;;8.62;100.00
63808;BME280;49961;43.970;22.868;2023-02-23T00:33:25;101354.38;;;8.48;100.00
63808;BME280;49961;43.970;22.868;2023-02-23T00:34:25;101379.16;;;8.69;100.00
63808;BME280;49961;43.970;22.868;2023-02-23T00:35:26;101373.97;;;8.75;100.00
63808;BME280;49961;43.970;22.868;2023-02-23T00:36:31;101380.25;;;8.82;100.00
63808;BME280;49961;43.970;22.868;2023-02-23T00:37:32;101377.88;;;8.88;100.00
63808;BME280;49961;43.970;22.868;2023-02-23T00:38:33;101381.03;;;8.93;100.00
63808;BME280;49961;43.970;22.868;2023-02-23T00:39:35;101381.00;;;8.97;100.00
63808;BME280;49961;43.970;22.868;2023-02-23T00:40:38;101381.34;;;9.02;100.00
63808;BME280;49961;43.970;22.868;2023-02-23T00:41:39;101384.94;;;8.99;100.00
63808;BME280;49961;43.970;22.868;2023-02-23T00:42:46;101285.75;;;8.36;100.00
63808;BME280;49961;43.970;22.868;2023-02-23T00:43:46;101376.22;;;9.01;100.00
63808;BME280;49961;43.970;22.868;2023-02-23T00:44:47;101304.25;;;8.53;100.00
63808;BME280;49961;43.970;22.868;2023-02-23T00:45:48;101375.06;;;9.02;100.00
63808;BME280;49961;43.970;22.868;2023-02-23T00:46:49;101375.84;;;8.99;100.00
63808;BME280;49961;43.970;22.868;2023-02-23T00:47:50;101259.78;;;8.16;100.00
63808;BME280;49961;43.970;22.868;2023-02-23T00:48:51;101380.63;;;8.91;100.00
63808;BME280;49961;43.970;22.868;2023-02-23T00:49:54;101386.19;;;8.88;100.00
63808;BME280;49961;43.970;22.868;2023-02-23T00:51:02;101255.16;;;7.92;100.00
63808;BME280;49961;43.970;22.868;2023-02-23T00:52:02;101386.22;;;8.74;100.00
63808;BME280;49961;43.970;22.868;2023-02-23T00:53:04;101388.63;;;8.65;100.00
63808;BME280;49961;43.970;22.868;2023-02-23T00:54:05;101376.84;;;8.50;100.00
63808;BME280;49961;43.970;22.868;2023-02-23T00:55:11;101391.81;;;8.56;100.00
63808;BME280;49961;43.970;22.868;2023-02-23T00:56:13;101388.28;;;8.56;100.00
63808;BME280;49961;43.970;22.868;2023-02-23T00:57:14;101395.78;;;8.52;100.00
63808;BME280;49961;43.970;22.868;2023-02-23T00:58:15;101375.72;;;8.30;100.00
63808;BME280;49961;43.970;22.868;2023-02-23T00:59:17;101395.81;;;8.41;100.00
63808;BME280;49961;43.970;22.868;2023-02-23T01:00:18;101392.69;;;8.39;100.00
63808;BME280;49961;43.970;22.868;2023-02-23T01:01:20;101395.44;;;8.39;100.00
63808;BME280;49961;43.970;22.868;2023-02-23T01:02:20;101398.59;;;8.41;100.00
63808;BME280;49961;43.970;22.868;2023-02-23T01:03:21;101397.41;;;8.42;100.00
63808;BME280;49961;43.970;22.868;2023-02-23T01:04:21;101401.75;;;8.43;100.00
63808;BME280;49961;43.970;22.868;2023-02-23T01:05:22;101405.69;;;8.42;100.00
63808;BME280;49961;43.970;22.868;2023-02-23T01:06:22;101411.22;;;8.39;100.00
63808;BME280;49961;43.970;22.868;2023-02-23T01:07:23;101405.69;;;8.39;100.00
63808;BME280;49961;43.970;22.868;2023-02-23T01:08:25;101411.22;;;8.42;100.00
63808;BME280;49961;43.970;22.868;2023-02-23T01:09:27;101402.16;;;8.38;100.00
63808;BME280;49961;43.970;22.868;2023-02-23T01:10:27;101398.59;;;8.41;100.00
63808;BME280;49961;43.970;22.868;2023-02-23T01:11:28;101393.06;;;8.45;100.00
63808;BME280;49961;43.970;22.868;2023-02-23T01:12:30;101396.63;;;8.38;100.00
63808;BME280;49961;43.970;22.868;2023-02-23T01:13:30;101402.94;;;8.35;100.00
63808;BME280;49961;43.970;22.868;2023-02-23T01:14:31;101401.41;;;8.27;100.00
63808;BME280;49961;43.970;22.868;2023-02-23T01:15:31;101368.69;;;8.05;100.00
63808;BME280;49961;43.970;22.868;2023-02-23T01:16:33;101393.13;;;8.06;100.00
63808;BME280;49961;43.970;22.868;2023-02-23T01:17:34;101406.50;;;8.08;100.00
63808;BME280;49961;43.970;22.868;2023-02-23T01:18:35;101397.06;;;8.02;100.00
63808;BME280;49961;43.970;22.868;2023-02-23T01:19:36;101384.84;;;7.82;100.00
63808;BME280;49961;43.970;22.868;2023-02-23T01:20:37;101261.91;;;6.93;100.00
63808;BME280;49961;43.970;22.868;2023-02-23T01:21:39;101398.63;;;7.85;100.00
63808;BME280;49961;43.970;22.868;2023-02-23T01:22:41;101408.50;;;7.72;100.00
63808;BME280;49961;43.970;22.868;2023-02-23T01:23:42;101409.28;;;7.66;100.00
63808;BME280;49961;43.970;22.868;2023-02-23T01:24:42;101416.38;;;7.67;100.00
63808;BME280;49961;43.970;22.868;2023-02-23T01:25:44;101298.53;;;6.90;100.00
63808;BME280;49961;43.970;22.868;2023-02-23T01:26:45;101321.78;;;7.03;100.00
63808;BME280;49961;43.970;22.868;2023-02-23T01:27:45;101412.41;;;7.47;100.00
63808;BME280;49961;43.970;22.868;2023-02-23T01:28:54;101274.81;;;6.47;100.00
63808;BME280;49961;43.970;22.868;2023-02-23T01:29:54;101408.47;;;7.34;100.00
63808;BME280;49961;43.970;22.868;2023-02-23T01:30:55;101417.13;;;7.39;100.00
63808;BME280;49961;43.970;22.868;2023-02-23T01:31:55;101412.41;;;7.40;100.00
63808;BME280;49961;43.970;22.868;2023-02-23T01:32:56;101417.16;;;7.43;100.00
63808;BME280;49961;43.970;22.868;2023-02-23T01:33:58;101411.22;;;7.41;100.00
63808;BME280;49961;43.970;22.868;2023-02-23T01:34:59;101414.38;;;7.39;100.00
63808;BME280;49961;43.970;22.868;2023-02-23T01:36:00;101407.69;;;7.33;100.00
63808;BME280;49961;43.970;22.868;2023-02-23T01:37:00;101423.84;;;7.42;100.00
63808;BME280;49961;43.970;22.868;2023-02-23T01:38:02;101425.41;;;7.39;100.00
63808;BME280;49961;43.970;22.868;2023-02-23T01:39:05;101426.59;;;7.38;100.00
63808;BME280;49961;43.970;22.868;2023-02-23T01:40:11;101425.81;;;7.41;100.00
63808;BME280;49961;43.970;22.868;2023-02-23T01:41:15;101396.66;;;7.23;100.00
63808;BME280;49961;43.970;22.868;2023-02-23T01:42:16;101423.44;;;7.40;100.00
63808;BME280;49961;43.970;22.868;2023-02-23T01:43:19;101415.56;;;7.38;100.00
63808;BME280;49961;43.970;22.868;2023-02-23T01:45:33;101276.38;;;6.41;100.00
63808;BME280;49961;43.970;22.868;2023-02-23T01:46:39;101417.50;;;7.27;100.00
63808;BME280;49961;43.970;22.868;2023-02-23T01:47:40;101416.34;;;7.25;100.00
63808;BME280;49961;43.970;22.868;2023-02-23T01:48:41;101423.03;;;7.24;100.00
63808;BME280;49961;43.970;22.868;2023-02-23T01:49:41;101423.84;;;7.28;100.00
63808;BME280;49961;43.970;22.868;2023-02-23T01:51:07;101423.41;;;7.29;100.00
63808;BME280;49961;43.970;22.868;2023-02-23T01:52:12;101415.91;;;7.12;100.00
63808;BME280;49961;43.970;22.868;2023-02-23T01:53:14;101388.34;;;7.09;100.00
63808;BME280;49961;43.970;22.868;2023-02-23T01:54:20;101372.56;;;7.02;100.00
63808;BME280;49961;43.970;22.868;2023-02-23T01:55:25;101422.66;;;7.36;100.00
63808;BME280;49961;43.970;22.868;2023-02-23T01:56:31;101435.28;;;7.44;100.00
63808;BME280;49961;43.970;22.868;2023-02-23T01:57:34;101432.91;;;7.42;100.00
63808;BME280;49961;43.970;22.868;2023-02-23T01:58:39;101439.19;;;7.39;100.00
63808;BME280;49961;43.970;22.868;2023-02-23T01:59:45;101438.81;;;7.34;100.00
63808;BME280;49961;43.970;22.868;2023-02-23T02:00:57;101432.88;;;7.18;100.00
63808;BME280;49961;43.970;22.868;2023-02-23T02:02:01;101422.56;;;7.01;100.00
63808;BME280;49961;43.970;22.868;2023-02-23T02:03:07;101354.34;;;6.59;100.00
63808;BME280;49961;43.970;22.868;2023-02-23T02:04:11;101361.78;;;6.59;100.00
63808;BME280;49961;43.970;22.868;2023-02-23T02:05:16;101371.63;;;6.56;100.00
63808;BME280;49961;43.970;22.868;2023-02-23T02:06:20;101463.13;;;7.00;100.00
63808;BME280;49961;43.970;22.868;2023-02-23T02:07:25;101444.59;;;7.01;100.00
63808;BME280;49961;43.970;22.868;2023-02-23T02:08:32;101424.47;;;6.79;100.00
63808;BME280;49961;43.970;22.868;2023-02-23T02:09:33;101444.19;;;6.95;100.00
63808;BME280;49961;43.970;22.868;2023-02-23T02:10:38;101446.53;;;6.90;100.00
63808;BME280;49961;43.970;22.868;2023-02-23T02:11:39;101380.59;;;6.36;100.00
63808;BME280;49961;43.970;22.868;2023-02-23T02:12:45;101446.50;;;6.79;100.00
63808;BME280;49961;43.970;22.868;2023-02-23T02:13:48;101453.94;;;6.75;100.00
63808;BME280;49961;43.970;22.868;2023-02-23T02:14:48;101458.69;;;6.78;100.00
63808;BME280;49961;43.970;22.868;2023-02-23T02:16:16;101448.81;;;6.74;100.00
63808;BME280;49961;43.970;22.868;2023-02-23T02:20:28;101464.50;;;6.63;100.00
63808;BME280;49961;43.970;22.868;2023-02-23T02:24:43;101346.94;;;5.99;100.00
63808;BME280;49961;43.970;22.868;2023-02-23T02:27:33;101460.22;;;6.69;100.00
63808;BME280;49961;43.970;22.868;2023-02-23T02:42:15;101475.34;;;7.03;100.00
63808;BME280;49961;43.970;22.868;2023-02-23T02:43:33;101471.78;;;7.02;100.00
63808;BME280;49961;43.970;22.868;2023-02-23T02:45:02;101472.16;;;7.01;100.00
63808;BME280;49961;43.970;22.868;2023-02-23T02:46:20;101480.84;;;6.99;100.00
63808;BME280;49961;43.970;22.868;2023-02-23T02:47:29;101449.66;;;6.88;100.00
63808;BME280;49961;43.970;22.868;2023-02-23T02:48:44;101463.50;;;6.95;100.00
63808;BME280;49961;43.970;22.868;2023-02-23T02:49:58;101487.53;;;7.02;100.00
63808;BME280;49961;43.970;22.868;2023-02-23T02:52:28;101494.63;;;7.03;100.00
63808;BME280;49961;43.970;22.868;2023-02-23T02:53:40;101509.16;;;7.00;100.00
63808;BME280;49961;43.970;22.868;2023-02-23T02:54:52;101466.56;;;6.83;100.00
63808;BME280;49961;43.970;22.868;2023-02-23T02:55:56;101496.56;;;7.02;100.00
63808;BME280;49961;43.970;22.868;2023-02-23T02:57:02;101482.34;;;6.93;100.00
63808;BME280;49961;43.970;22.868;2023-02-23T02:58:05;101496.56;;;6.99;100.00
63808;BME280;49961;43.970;22.868;2023-02-23T02:59:11;101489.84;;;6.93;100.00
63808;BME280;49961;43.970;22.868;2023-02-23T03:00:37;101385.19;;;6.21;100.00
63808;BME280;49961;43.970;22.868;2023-02-23T03:01:57;101489.88;;;6.96;100.00
63808;BME280;49961;43.970;22.868;2023-02-23T03:03:37;101428.63;;;6.49;100.00
63808;BME280;49961;43.970;22.868;2023-02-23T03:04:57;101495.72;;;6.84;100.00
63808;BME280;49961;43.970;22.868;2023-02-23T03:06:19;101431.34;;;6.42;100.00
63808;BME280;49961;43.970;22.868;2023-02-23T03:07:49;101498.38;;;6.67;100.00
63808;BME280;49961;43.970;22.868;2023-02-23T03:11:04;101497.09;;;6.54;100.00
63808;BME280;49961;43.970;22.868;2023-02-23T03:14:32;101507.59;;;6.34;100.00
63808;BME280;49961;43.970;22.868;2023-02-23T03:16:30;101511.19;;;6.38;100.00
63808;BME280;49961;43.970;22.868;2023-02-23T03:18:00;101457.44;;;6.04;100.00
63808;BME280;49961;43.970;22.868;2023-02-23T03:19:28;101510.72;;;6.33;100.00
63808;BME280;49961;43.970;22.868;2023-02-23T03:20:52;101508.34;;;6.31;100.00
63808;BME280;49961;43.970;22.868;2023-02-23T03:22:20;101515.47;;;6.32;100.00
63808;BME280;49961;43.970;22.868;2023-02-23T03:27:39;101518.56;;;6.27;100.00
63808;BME280;49961;43.970;22.868;2023-02-23T03:29:11;101527.59;;;6.28;100.00
63808;BME280;49961;43.970;22.868;2023-02-23T03:32:25;101519.69;;;6.23;100.00
63808;BME280;49961;43.970;22.868;2023-02-23T03:34:15;101516.97;;;6.26;100.00
63808;BME280;49961;43.970;22.868;2023-02-23T03:35:59;101519.31;;;6.24;100.00
63808;BME280;49961;43.970;22.868;2023-02-23T03:39:33;101526.78;;;6.24;100.00
63808;BME280;49961;43.970;22.868;2023-02-23T03:40:55;101496.31;;;6.03;100.00
63808;BME280;49961;43.970;22.868;2023-02-23T03:42:18;101493.53;;;5.96;100.00
63808;BME280;49961;43.970;22.868;2023-02-23T03:43:45;101538.22;;;6.26;100.00
63808;BME280;49961;43.970;22.868;2023-02-23T03:45:10;101540.13;;;6.18;100.00
63808;BME280;49961;43.970;22.868;2023-02-23T03:46:31;101542.88;;;6.22;100.00
63808;BME280;49961;43.970;22.868;2023-02-23T03:47:52;101544.50;;;6.26;100.00
63808;BME280;49961;43.970;22.868;2023-02-23T03:49:14;101544.50;;;6.26;100.00
63808;BME280;49961;43.970;22.868;2023-02-23T03:50:39;101544.81;;;6.18;100.00
63808;BME280;49961;43.970;22.868;2023-02-23T03:52:04;101547.16;;;6.12;100.00
63808;BME280;49961;43.970;22.868;2023-02-23T03:55:09;101396.94;;;5.21;100.00
63808;BME280;49961;43.970;22.868;2023-02-23T03:56:32;101552.94;;;6.04;100.00
63808;BME280;49961;43.970;22.868;2023-02-23T03:57:55;101551.81;;;6.08;100.00
63808;BME280;49961;43.970;22.868;2023-02-23T03:59:19;101453.75;;;5.46;100.00
63808;BME280;49961;43.970;22.868;2023-02-23T04:00:43;101539.25;;;6.11;100.00
63808;BME280;49961;43.970;22.868;2023-02-23T04:02:05;101544.38;;;6.12;100.00
63808;BME280;49961;43.970;22.868;2023-02-23T04:03:26;101546.34;;;6.12;100.00
63808;BME280;49961;43.970;22.868;2023-02-23T04:04:48;101552.22;;;6.10;100.00
63808;BME280;49961;43.970;22.868;2023-02-23T04:06:10;101542.34;;;6.06;100.00
63808;BME280;49961;43.970;22.868;2023-02-23T04:07:32;101544.28;;;6.02;100.00
63808;BME280;49961;43.970;22.868;2023-02-23T04:08:53;101529.63;;;5.91;100.00
63808;BME280;49961;43.970;22.868;2023-02-23T04:10:14;101546.97;;;5.95;100.00
63808;BME280;49961;43.970;22.868;2023-02-23T04:11:47;101548.56;;;5.96;100.00
63808;BME280;49961;43.970;22.868;2023-02-23T04:13:13;101518.16;;;5.82;100.00
63808;BME280;49961;43.970;22.868;2023-02-23T04:14:40;101431.16;;;5.27;100.00
63808;BME280;49961;43.970;22.868;2023-02-23T04:15:59;101551.34;;;5.99;100.00
63808;BME280;49961;43.970;22.868;2023-02-23T04:17:01;101551.34;;;5.99;100.00
63808;BME280;49961;43.970;22.868;2023-02-23T04:18:04;101551.72;;;5.98;100.00
63808;BME280;49961;43.970;22.868;2023-02-23T04:19:05;101549.75;;;5.98;100.00
63808;BME280;49961;43.970;22.868;2023-02-23T04:20:06;101555.28;;;6.02;100.00
63808;BME280;49961;43.970;22.868;2023-02-23T04:21:07;101554.53;;;6.05;100.00
63808;BME280;49961;43.970;22.868;2023-02-23T04:22:08;101554.94;;;6.07;100.00
63808;BME280;49961;43.970;22.868;2023-02-23T04:23:08;101407.50;;;5.15;100.00
63808;BME280;49961;43.970;22.868;2023-02-23T04:24:09;101547.03;;;6.02;100.00
63808;BME280;49961;43.970;22.868;2023-02-23T04:25:10;101547.06;;;6.05;100.00
63808;BME280;49961;43.970;22.868;2023-02-23T04:26:12;101547.50;;;6.07;100.00
63808;BME280;49961;43.970;22.868;2023-02-23T04:27:13;101556.53;;;6.08;100.00
63808;BME280;49961;43.970;22.868;2023-02-23T04:28:14;101396.41;;;5.08;100.00
63808;BME280;49961;43.970;22.868;2023-02-23T04:29:15;101545.47;;;6.01;100.00
63808;BME280;49961;43.970;22.868;2023-02-23T04:30:16;101537.94;;;5.98;100.00
63808;BME280;49961;43.970;22.868;2023-02-23T04:31:16;101558.91;;;6.09;100.00
63808;BME280;49961;43.970;22.868;2023-02-23T04:32:18;101558.91;;;6.09;100.00
63808;BME280;49961;43.970;22.868;2023-02-23T04:33:20;101560.06;;;6.08;100.00
63808;BME280;49961;43.970;22.868;2023-02-23T04:34:21;101555.41;;;6.12;100.00
63808;BME280;49961;43.970;22.868;2023-02-23T04:35:21;101552.66;;;6.12;100.00
63808;BME280;49961;43.970;22.868;2023-02-23T04:36:22;101543.88;;;6.00;100.00
63808;BME280;49961;43.970;22.868;2023-02-23T04:37:23;101560.09;;;6.12;100.00
63808;BME280;49961;43.970;22.868;2023-02-23T04:38:24;101556.53;;;6.11;100.00
63808;BME280;49961;43.970;22.868;2023-02-23T04:39:24;101534.31;;;5.87;100.00
63808;BME280;49961;43.970;22.868;2023-02-23T04:40:25;101558.06;;;6.05;100.00
63808;BME280;49961;43.970;22.868;2023-02-23T04:41:25;101562.41;;;6.06;100.00
63808;BME280;49961;43.970;22.868;2023-02-23T04:42:26;101553.41;;;6.09;100.00
63808;BME280;49961;43.970;22.868;2023-02-23T04:43:26;101565.56;;;6.08;100.00
63808;BME280;49961;43.970;22.868;2023-02-23T04:44:27;101556.53;;;6.08;100.00
63808;BME280;49961;43.970;22.868;2023-02-23T04:45:27;101495.59;;;5.69;100.00
63808;BME280;49961;43.970;22.868;2023-02-23T04:46:27;101548.97;;;6.01;100.00
63808;BME280;49961;43.970;22.868;2023-02-23T04:47:28;101560.44;;;6.07;100.00
63808;BME280;49961;43.970;22.868;2023-02-23T04:48:28;101536.34;;;5.93;100.00
63808;BME280;49961;43.970;22.868;2023-02-23T04:49:29;101547.00;;;5.98;100.00
63808;BME280;49961;43.970;22.868;2023-02-23T04:50:30;101554.88;;;6.00;100.00
63808;BME280;49961;43.970;22.868;2023-02-23T04:51:30;101548.59;;;5.99;100.00
63808;BME280;49961;43.970;22.868;2023-02-23T04:52:33;101566.75;;;6.07;100.00
63808;BME280;49961;43.970;22.868;2023-02-23T04:53:34;101522.94;;;5.88;100.00
63808;BME280;49961;43.970;22.868;2023-02-23T04:54:38;101569.16;;;6.12;100.00
63808;BME280;49961;43.970;22.868;2023-02-23T04:55:38;101469.91;;;5.51;100.00
63808;BME280;49961;43.970;22.868;2023-02-23T04:56:39;101559.28;;;6.11;100.00
63808;BME280;49961;43.970;22.868;2023-02-23T04:57:39;101556.13;;;6.06;100.00
63808;BME280;49961;43.970;22.868;2023-02-23T04:58:40;101563.56;;;6.05;100.00
63808;BME280;49961;43.970;22.868;2023-02-23T04:59:41;101488.41;;;5.58;100.00
63808;BME280;49961;43.970;22.868;2023-02-23T05:00:41;101561.19;;;6.04;100.00
63808;BME280;49961;43.970;22.868;2023-02-23T05:01:42;101540.09;;;5.78;100.00
63808;BME280;49961;43.970;22.868;2023-02-23T05:02:42;101572.53;;;5.99;100.00
63808;BME280;49961;43.970;22.868;2023-02-23T05:03:43;101569.00;;;5.95;100.00
63808;BME280;49961;43.970;22.868;2023-02-23T05:04:44;101575.66;;;5.94;100.00
63808;BME280;49961;43.970;22.868;2023-02-23T05:05:44;101375.97;;;4.69;100.00
63808;BME280;49961;43.970;22.868;2023-02-23T05:06:45;101571.72;;;5.91;100.00
63808;BME280;49961;43.970;22.868;2023-02-23T05:07:46;101569.69;;;5.88;100.00
63808;BME280;49961;43.970;22.868;2023-02-23T05:08:46;101497.94;;;5.31;100.00
63808;BME280;49961;43.970;22.868;2023-02-23T05:09:46;101571.53;;;5.77;100.00
63808;BME280;49961;43.970;22.868;2023-02-23T05:10:47;101584.44;;;5.73;100.00
63808;BME280;49961;43.970;22.868;2023-02-23T05:11:47;101570.66;;;5.70;100.00
63808;BME280;49961;43.970;22.868;2023-02-23T05:12:48;101494.75;;;5.25;100.00
63808;BME280;49961;43.970;22.868;2023-02-23T05:13:48;101578.66;;;5.82;100.00
63808;BME280;49961;43.970;22.868;2023-02-23T05:14:49;101581.84;;;5.84;100.00
63808;BME280;49961;43.970;22.868;2023-02-23T05:15:49;101580.56;;;5.78;100.00
63808;BME280;49961;43.970;22.868;2023-02-23T05:16:50;101578.25;;;5.80;100.00
63808;BME280;49961;43.970;22.868;2023-02-23T05:17:50;101581.72;;;5.77;100.00
63808;BME280;49961;43.970;22.868;2023-02-23T05:18:50;101588.09;;;5.81;100.00
63808;BME280;49961;43.970;22.868;2023-02-23T05:19:51;101544.59;;;5.60;100.00
63808;BME280;49961;43.970;22.868;2023-02-23T05:20:53;101577.44;;;5.79;100.00
63808;BME280;49961;43.970;22.868;2023-02-23T05:22:00;101489.59;;;5.20;100.00
63808;BME280;49961;43.970;22.868;2023-02-23T05:23:01;101586.16;;;5.81;100.00
63808;BME280;49961;43.970;22.868;2023-02-23T05:24:01;101584.16;;;5.82;100.00
63808;BME280;49961;43.970;22.868;2023-02-23T05:25:01;101583.78;;;5.83;100.00
63808;BME280;49961;43.970;22.868;2023-02-23T05:26:06;101501.06;;;5.29;100.00
63808;BME280;49961;43.970;22.868;2023-02-23T05:27:08;101546.13;;;5.54;100.00
63808;BME280;49961;43.970;22.868;2023-02-23T05:28:08;101515.31;;;5.38;100.00
63808;BME280;49961;43.970;22.868;2023-02-23T05:29:10;101583.41;;;5.81;100.00
63808;BME280;49961;43.970;22.868;2023-02-23T05:30:10;101586.84;;;5.78;100.00
63808;BME280;49961;43.970;22.868;2023-02-23T05:31:11;101589.19;;;5.76;100.00
63808;BME280;49961;43.970;22.868;2023-02-23T05:32:12;101593.50;;;5.74;100.00
63808;BME280;49961;43.970;22.868;2023-02-23T05:33:12;101589.94;;;5.73;100.00
63808;BME280;49961;43.970;22.868;2023-02-23T05:34:13;101588.38;;;5.72;100.00
63808;BME280;49961;43.970;22.868;2023-02-23T05:35:16;101594.22;;;5.71;100.00
63808;BME280;49961;43.970;22.868;2023-02-23T05:36:18;101575.63;;;5.57;100.00
63808;BME280;49961;43.970;22.868;2023-02-23T05:37:19;101597.38;;;5.73;100.00
63808;BME280;49961;43.970;22.868;2023-02-23T05:38:20;101547.56;;;5.41;100.00
63808;BME280;49961;43.970;22.868;2023-02-23T05:39:21;101596.63;;;5.72;100.00
63808;BME280;49961;43.970;22.868;2023-02-23T05:40:21;101600.13;;;5.73;100.00
63808;BME280;49961;43.970;22.868;2023-02-23T05:41:22;101598.19;;;5.73;100.00
63808;BME280;49961;43.970;22.868;2023-02-23T05:42:22;101601.28;;;5.68;100.00
63808;BME280;49961;43.970;22.868;2023-02-23T05:43:23;101509.84;;;5.09;100.00
63808;BME280;49961;43.970;22.868;2023-02-23T05:44:23;101596.16;;;5.67;100.00
63808;BME280;49961;43.970;22.868;2023-02-23T05:45:24;101610.34;;;5.69;100.00
63808;BME280;49961;43.970;22.868;2023-02-23T05:46:25;101638.66;;;5.73;100.00
63808;BME280;49961;43.970;22.868;2023-02-23T05:47:26;101559.25;;;5.35;100.00
63808;BME280;49961;43.970;22.868;2023-02-23T05:48:27;101604.16;;;5.46;100.00
63808;BME280;49961;43.970;22.868;2023-02-23T05:49:28;101620.16;;;5.70;100.00
63808;BME280;49961;43.970;22.868;2023-02-23T05:50:28;101616.28;;;5.74;100.00
63808;BME280;49961;43.970;22.868;2023-02-23T05:51:31;101619.06;;;5.78;100.00
63808;BME280;49961;43.970;22.868;2023-02-23T05:52:36;101617.09;;;5.78;100.00
63808;BME280;49961;43.970;22.868;2023-02-23T05:53:37;101623.47;;;5.82;100.00
63808;BME280;49961;43.970;22.868;2023-02-23T05:54:38;101621.44;;;5.79;100.00
63808;BME280;49961;43.970;22.868;2023-02-23T05:55:38;101625.72;;;5.77;100.00
63808;BME280;49961;43.970;22.868;2023-02-23T05:56:40;101537.84;;;5.18;100.00
63808;BME280;49961;43.970;22.868;2023-02-23T05:57:40;101631.56;;;5.72;100.00
63808;BME280;49961;43.970;22.868;2023-02-23T05:58:41;101635.09;;;5.69;100.00
63808;BME280;49961;43.970;22.868;2023-02-23T05:59:42;101635.13;;;5.72;100.00
63808;BME280;49961;43.970;22.868;2023-02-23T06:00:43;101548.78;;;5.14;100.00
63808;BME280;49961;43.970;22.868;2023-02-23T06:01:43;101635.81;;;5.66;100.00
63808;BME280;49961;43.970;22.868;2023-02-23T06:02:44;101643.38;;;5.72;100.00
63808;BME280;49961;43.970;22.868;2023-02-23T06:03:45;101625.22;;;5.68;100.00
63808;BME280;49961;43.970;22.868;2023-02-23T06:04:46;101641.16;;;5.81;100.00
63808;BME280;49961;43.970;22.868;2023-02-23T06:05:54;101641.19;;;5.85;100.00
63808;BME280;49961;43.970;22.868;2023-02-23T06:06:54;101651.06;;;5.89;100.00
63808;BME280;49961;43.970;22.868;2023-02-23T06:07:55;101647.06;;;5.83;100.00
63808;BME280;49961;43.970;22.868;2023-02-23T06:08:56;101651.00;;;5.82;100.00
63808;BME280;49961;43.970;22.868;2023-02-23T06:09:56;101635.53;;;5.74;100.00
63808;BME280;49961;43.970;22.868;2023-02-23T06:10:57;101657.34;;;5.86;100.00
63808;BME280;49961;43.970;22.868;2023-02-23T06:11:57;101519.13;;;4.97;100.00
63808;BME280;49961;43.970;22.868;2023-02-23T06:13:00;101654.94;;;5.85;100.00
63808;BME280;49961;43.970;22.868;2023-02-23T06:14:00;101655.81;;;5.92;100.00
63808;BME280;49961;43.970;22.868;2023-02-23T06:15:01;101659.00;;;5.98;100.00
63808;BME280;49961;43.970;22.868;2023-02-23T06:16:01;101659.84;;;6.02;100.00
63808;BME280;49961;43.970;22.868;2023-02-23T06:17:02;101660.31;;;6.07;100.00